sensor_id;sensor_type;location;lat;lon;timestamp;P1;durP1;ratioP1;P2;durP2;ratioP2
61531;SDS011;47397;48.194;11.632;2024-03-23T00:53:24;4.55;;;2.88;;
61531;SDS011;47397;48.194;11.632;2024-03-23T00:54:25;6.45;;;3.00;;
61531;SDS011;47397;48.194;11.632;2024-03-23T00:55:25;4.22;;;2.70;;
61531;SDS011;47397;48.194;11.632;2024-03-23T00:56:27;4.35;;;2.97;;
61531;SDS011;47397;48.194;11.632;2024-03-23T00:57:27;4.07;;;2.83;;
61531;SDS011;47397;48.194;11.632;2024-03-23T00:58:28;4.50;;;3.20;;
61531;SDS011;47397;48.194;11.632;2024-03-23T00:59:28;5.72;;;2.60;;
61531;SDS011;47397;48.194;11.632;2024-03-23T01:00:29;3.50;;;2.58;;
61531;SDS011;47397;48.194;11.632;2024-03-23T01:01:29;4.53;;;2.92;;
61531;SDS011;47397;48.194;11.632;2024-03-23T01:02:29;3.72;;;2.45;;
61531;SDS011;47397;48.194;11.632;2024-03-23T01:03:30;3.85;;;2.70;;
61531;SDS011;47397;48.194;11.632;2024-03-23T01:04:30;4.90;;;2.80;;
61531;SDS011;47397;48.194;11.632;2024-03-23T01:05:31;4.80;;;2.58;;
61531;SDS011;47397;48.194;11.632;2024-03-23T01:06:31;3.63;;;2.65;;
61531;SDS011;47397;48.194;11.632;2024-03-23T01:07:32;4.05;;;3.15;;
61531;SDS011;47397;48.194;11.632;2024-03-23T01:08:32;4.68;;;3.20;;
61531;SDS011;47397;48.194;11.632;2024-03-23T01:09:32;7.43;;;2.88;;
61531;SDS011;47397;48.194;11.632;2024-03-23T01:10:33;4.43;;;2.65;;
61531;SDS011;47397;48.194;11.632;2024-03-23T01:11:35;5.30;;;2.65;;
61531;SDS011;47397;48.194;11.632;2024-03-23T01:12:35;5.13;;;2.83;;
61531;SDS011;47397;48.194;11.632;2024-03-23T01:13:35;5.15;;;3.13;;
61531;SDS011;47397;48.194;11.632;2024-03-23T01:14:36;5.47;;;2.53;;
61531;SDS011;47397;48.194;11.632;2024-03-23T01:15:36;4.63;;;2.40;;
61531;SDS011;47397;48.194;11.632;2024-03-23T01:16:37;4.45;;;2.47;;
61531;SDS011;47397;48.194;11.632;2024-03-23T01:17:37;3.95;;;2.70;;
61531;SDS011;47397;48.194;11.632;2024-03-23T01:18:37;4.38;;;2.60;;
61531;SDS011;47397;48.194;11.632;2024-03-23T01:19:38;4.07;;;2.40;;
61531;SDS011;47397;48.194;11.632;2024-03-23T01:20:38;4.15;;;2.70;;
61531;SDS011;47397;48.194;11.632;2024-03-23T01:21:38;5.10;;;2.75;;
61531;SDS011;47397;48.194;11.632;2024-03-23T01:22:39;6.90;;;3.10;;
61531;SDS011;47397;48.194;11.632;2024-03-23T01:23:39;4.35;;;2.63;;
61531;SDS011;47397;48.194;11.632;2024-03-23T01:24:40;3.85;;;2.17;;
61531;SDS011;47397;48.194;11.632;2024-03-23T01:25:40;3.05;;;2.47;;
61531;SDS011;47397;48.194;11.632;2024-03-23T01:26:42;3.08;;;2.20;;
61531;SDS011;47397;48.194;11.632;2024-03-23T01:27:42;5.47;;;2.63;;
61531;SDS011;47397;48.194;11.632;2024-03-23T01:28:43;4.32;;;2.53;;
61531;SDS011;47397;48.194;11.632;2024-03-23T01:29:43;4.10;;;2.60;;
61531;SDS011;47397;48.194;11.632;2024-03-23T01:30:44;4.25;;;2.40;;
61531;SDS011;47397;48.194;11.632;2024-03-23T01:31:44;3.25;;;2.40;;
61531;SDS011;47397;48.194;11.632;2024-03-23T01:32:44;3.50;;;2.42;;
61531;SDS011;47397;48.194;11.632;2024-03-23T01:33:45;2.88;;;2.00;;
61531;SDS011;47397;48.194;11.632;2024-03-23T01:34:45;4.03;;;2.28;;
61531;SDS011;47397;48.194;11.632;2024-03-23T01:35:46;5.40;;;2.22;;
61531;SDS011;47397;48.194;11.632;2024-03-23T01:36:46;4.95;;;2.40;;
61531;SDS011;47397;48.194;11.632;2024-03-23T01:37:46;3.42;;;2.22;;
61531;SDS011;47397;48.194;11.632;2024-03-23T01:38:47;5.78;;;2.28;;
61531;SDS011;47397;48.194;11.632;2024-03-23T01:39:47;2.88;;;1.98;;
61531;SDS011;47397;48.194;11.632;2024-03-23T01:40:48;3.90;;;2.08;;
61531;SDS011;47397;48.194;11.632;2024-03-23T01:41:49;3.22;;;2.00;;
61531;SDS011;47397;48.194;11.632;2024-03-23T01:42:56;2.90;;;2.10;;
61531;SDS011;47397;48.194;11.632;2024-03-23T01:43:56;4.03;;;1.98;;
61531;SDS011;47397;48.194;11.632;2024-03-23T01:44:57;4.20;;;2.10;;
61531;SDS011;47397;48.194;11.632;2024-03-23T01:45:57;3.40;;;2.10;;
61531;SDS011;47397;48.194;11.632;2024-03-23T01:46:58;4.43;;;2.20;;
61531;SDS011;47397;48.194;11.632;2024-03-23T01:47:58;4.85;;;2.17;;
61531;SDS011;47397;48.194;11.632;2024-03-23T01:48:58;3.42;;;1.98;;
61531;SDS011;47397;48.194;11.632;2024-03-23T01:49:59;3.72;;;1.70;;
61531;SDS011;47397;48.194;11.632;2024-03-23T01:51:00;3.30;;;1.85;;
61531;SDS011;47397;48.194;11.632;2024-03-23T01:52:01;3.88;;;2.10;;
61531;SDS011;47397;48.194;11.632;2024-03-23T01:53:02;3.03;;;1.95;;
61531;SDS011;47397;48.194;11.632;2024-03-23T01:54:04;5.40;;;2.10;;
61531;SDS011;47397;48.194;11.632;2024-03-23T01:55:07;3.28;;;2.22;;
61531;SDS011;47397;48.194;11.632;2024-03-23T01:56:08;2.88;;;2.05;;
61531;SDS011;47397;48.194;11.632;2024-03-23T01:57:10;3.40;;;2.00;;
61531;SDS011;47397;48.194;11.632;2024-03-23T01:58:11;4.22;;;2.08;;
61531;SDS011;47397;48.194;11.632;2024-03-23T01:59:11;2.97;;;2.10;;
61531;SDS011;47397;48.194;11.632;2024-03-23T02:00:13;4.40;;;2.10;;
61531;SDS011;47397;48.194;11.632;2024-03-23T02:01:13;2.72;;;1.73;;
61531;SDS011;47397;48.194;11.632;2024-03-23T02:02:14;2.88;;;1.90;;
61531;SDS011;47397;48.194;11.632;2024-03-23T02:03:23;3.78;;;1.80;;
61531;SDS011;47397;48.194;11.632;2024-03-23T02:04:24;3.10;;;1.90;;
61531;SDS011;47397;48.194;11.632;2024-03-23T02:05:25;2.92;;;1.98;;
61531;SDS011;47397;48.194;11.632;2024-03-23T02:06:25;2.63;;;2.00;;
61531;SDS011;47397;48.194;11.632;2024-03-23T02:07:25;3.00;;;1.90;;
61531;SDS011;47397;48.194;11.632;2024-03-23T02:08:26;4.32;;;2.17;;
61531;SDS011;47397;48.194;11.632;2024-03-23T02:09:27;2.20;;;1.65;;
61531;SDS011;47397;48.194;11.632;2024-03-23T02:10:27;3.35;;;1.98;;
61531;SDS011;47397;48.194;11.632;2024-03-23T02:11:27;3.25;;;1.80;;
61531;SDS011;47397;48.194;11.632;2024-03-23T02:12:29;5.65;;;1.90;;
61531;SDS011;47397;48.194;11.632;2024-03-23T02:13:30;3.58;;;2.00;;
61531;SDS011;47397;48.194;11.632;2024-03-23T02:14:30;3.92;;;2.05;;
61531;SDS011;47397;48.194;11.632;2024-03-23T02:15:30;6.30;;;2.13;;
61531;SDS011;47397;48.194;11.632;2024-03-23T02:16:31;3.00;;;2.00;;
61531;SDS011;47397;48.194;11.632;2024-03-23T02:17:33;3.47;;;2.08;;
61531;SDS011;47397;48.194;11.632;2024-03-23T02:18:34;2.65;;;1.92;;
61531;SDS011;47397;48.194;11.632;2024-03-23T02:19:35;3.22;;;1.98;;
61531;SDS011;47397;48.194;11.632;2024-03-23T02:20:36;3.17;;;2.30;;
61531;SDS011;47397;48.194;11.632;2024-03-23T02:21:36;3.80;;;1.70;;
61531;SDS011;47397;48.194;11.632;2024-03-23T02:22:37;3.17;;;2.10;;
61531;SDS011;47397;48.194;11.632;2024-03-23T02:23:39;3.22;;;2.05;;
61531;SDS011;47397;48.194;11.632;2024-03-23T02:24:39;2.83;;;1.80;;
61531;SDS011;47397;48.194;11.632;2024-03-23T02:25:40;3.72;;;1.85;;
61531;SDS011;47397;48.194;11.632;2024-03-23T02:26:40;3.13;;;2.05;;
61531;SDS011;47397;48.194;11.632;2024-03-23T02:27:40;3.50;;;1.88;;
61531;SDS011;47397;48.194;11.632;2024-03-23T02:28:41;3.75;;;2.25;;
61531;SDS011;47397;48.194;11.632;2024-03-23T02:29:41;4.13;;;2.03;;
61531;SDS011;47397;48.194;11.632;2024-03-23T02:30:42;3.20;;;1.67;;
61531;SDS011;47397;48.194;11.632;2024-03-23T02:31:42;4.47;;;2.20;;
61531;SDS011;47397;48.194;11.632;2024-03-23T02:32:43;2.85;;;1.85;;
61531;SDS011;47397;48.194;11.632;2024-03-23T02:33:43;4.65;;;1.95;;
61531;SDS011;47397;48.194;11.632;2024-03-23T02:34:43;4.10;;;1.90;;
61531;SDS011;47397;48.194;11.632;2024-03-23T02:35:47;3.38;;;1.70;;
61531;SDS011;47397;48.194;11.632;2024-03-23T02:36:47;3.70;;;1.88;;
61531;SDS011;47397;48.194;11.632;2024-03-23T02:37:48;2.85;;;1.90;;
61531;SDS011;47397;48.194;11.632;2024-03-23T02:38:49;3.15;;;1.90;;
61531;SDS011;47397;48.194;11.632;2024-03-23T02:39:50;3.13;;;2.13;;
61531;SDS011;47397;48.194;11.632;2024-03-23T02:40:50;4.28;;;1.90;;
61531;SDS011;47397;48.194;11.632;2024-03-23T02:41:51;3.33;;;2.00;;
61531;SDS011;47397;48.194;11.632;2024-03-23T02:42:51;2.60;;;1.90;;
61531;SDS011;47397;48.194;11.632;2024-03-23T02:43:52;4.55;;;2.20;;
61531;SDS011;47397;48.194;11.632;2024-03-23T02:44:52;3.45;;;1.90;;
61531;SDS011;47397;48.194;11.632;2024-03-23T02:45:53;4.05;;;1.90;;
61531;SDS011;47397;48.194;11.632;2024-03-23T02:46:54;3.35;;;2.38;;
61531;SDS011;47397;48.194;11.632;2024-03-23T02:47:54;3.10;;;1.60;;
61531;SDS011;47397;48.194;11.632;2024-03-23T02:48:55;3.00;;;1.95;;
61531;SDS011;47397;48.194;11.632;2024-03-23T02:49:55;2.58;;;1.90;;
61531;SDS011;47397;48.194;11.632;2024-03-23T02:50:55;4.07;;;1.90;;
61531;SDS011;47397;48.194;11.632;2024-03-23T02:51:56;3.10;;;2.00;;
61531;SDS011;47397;48.194;11.632;2024-03-23T02:52:56;3.38;;;1.90;;
61531;SDS011;47397;48.194;11.632;2024-03-23T02:53:58;3.67;;;1.90;;
61531;SDS011;47397;48.194;11.632;2024-03-23T02:54:58;3.22;;;2.42;;
61531;SDS011;47397;48.194;11.632;2024-03-23T02:55:59;3.58;;;1.90;;
61531;SDS011;47397;48.194;11.632;2024-03-23T02:56:59;4.75;;;2.03;;
61531;SDS011;47397;48.194;11.632;2024-03-23T02:58:00;2.70;;;1.90;;
61531;SDS011;47397;48.194;11.632;2024-03-23T02:59:00;3.53;;;1.88;;
61531;SDS011;47397;48.194;11.632;2024-03-23T03:00:00;3.65;;;1.92;;
61531;SDS011;47397;48.194;11.632;2024-03-23T03:01:01;3.13;;;1.92;;
61531;SDS011;47397;48.194;11.632;2024-03-23T03:02:01;4.20;;;2.10;;
61531;SDS011;47397;48.194;11.632;2024-03-23T03:03:02;2.75;;;1.85;;
61531;SDS011;47397;48.194;11.632;2024-03-23T03:04:02;3.40;;;1.95;;
61531;SDS011;47397;48.194;11.632;2024-03-23T03:05:03;3.92;;;2.05;;
61531;SDS011;47397;48.194;11.632;2024-03-23T03:06:04;6.35;;;2.15;;
61531;SDS011;47397;48.194;11.632;2024-03-23T03:07:04;2.20;;;1.65;;
61531;SDS011;47397;48.194;11.632;2024-03-23T03:08:05;3.15;;;1.90;;
61531;SDS011;47397;48.194;11.632;2024-03-23T03:09:07;3.63;;;1.90;;
61531;SDS011;47397;48.194;11.632;2024-03-23T03:10:08;4.18;;;2.03;;
61531;SDS011;47397;48.194;11.632;2024-03-23T03:11:08;2.55;;;1.92;;
61531;SDS011;47397;48.194;11.632;2024-03-23T03:12:09;5.38;;;2.00;;
61531;SDS011;47397;48.194;11.632;2024-03-23T03:13:09;3.30;;;1.70;;
61531;SDS011;47397;48.194;11.632;2024-03-23T03:14:10;5.05;;;1.77;;
61531;SDS011;47397;48.194;11.632;2024-03-23T03:15:10;2.92;;;2.00;;
61531;SDS011;47397;48.194;11.632;2024-03-23T03:16:11;3.92;;;2.25;;
61531;SDS011;47397;48.194;11.632;2024-03-23T03:17:11;2.65;;;1.88;;
61531;SDS011;47397;48.194;11.632;2024-03-23T03:18:11;2.88;;;2.05;;
61531;SDS011;47397;48.194;11.632;2024-03-23T03:19:12;4.47;;;2.20;;
61531;SDS011;47397;48.194;11.632;2024-03-23T03:20:13;5.35;;;2.40;;
61531;SDS011;47397;48.194;11.632;2024-03-23T03:21:13;3.53;;;2.10;;
61531;SDS011;47397;48.194;11.632;2024-03-23T03:22:13;4.47;;;1.92;;
61531;SDS011;47397;48.194;11.632;2024-03-23T03:23:14;4.07;;;2.08;;
61531;SDS011;47397;48.194;11.632;2024-03-23T03:24:15;4.25;;;2.20;;
61531;SDS011;47397;48.194;11.632;2024-03-23T03:25:16;3.72;;;2.03;;
61531;SDS011;47397;48.194;11.632;2024-03-23T03:26:16;2.83;;;2.10;;
61531;SDS011;47397;48.194;11.632;2024-03-23T03:27:16;4.43;;;2.20;;
61531;SDS011;47397;48.194;11.632;2024-03-23T03:28:17;3.67;;;2.00;;
61531;SDS011;47397;48.194;11.632;2024-03-23T03:29:17;3.42;;;2.00;;
61531;SDS011;47397;48.194;11.632;2024-03-23T03:30:18;3.25;;;2.05;;
61531;SDS011;47397;48.194;11.632;2024-03-23T03:31:18;4.05;;;2.35;;
61531;SDS011;47397;48.194;11.632;2024-03-23T03:32:19;3.50;;;1.80;;
61531;SDS011;47397;48.194;11.632;2024-03-23T03:33:19;3.60;;;2.00;;
61531;SDS011;47397;48.194;11.632;2024-03-23T03:34:19;3.80;;;2.08;;
61531;SDS011;47397;48.194;11.632;2024-03-23T03:35:20;4.78;;;2.08;;
61531;SDS011;47397;48.194;11.632;2024-03-23T03:36:21;3.63;;;1.92;;
61531;SDS011;47397;48.194;11.632;2024-03-23T03:37:21;4.32;;;2.22;;
61531;SDS011;47397;48.194;11.632;2024-03-23T03:38:21;2.83;;;1.80;;
61531;SDS011;47397;48.194;11.632;2024-03-23T03:39:24;3.47;;;2.15;;
61531;SDS011;47397;48.194;11.632;2024-03-23T03:40:24;4.22;;;1.98;;
61531;SDS011;47397;48.194;11.632;2024-03-23T03:41:24;3.30;;;2.05;;
61531;SDS011;47397;48.194;11.632;2024-03-23T03:42:25;3.67;;;1.90;;
61531;SDS011;47397;48.194;11.632;2024-03-23T03:43:25;3.88;;;1.90;;
61531;SDS011;47397;48.194;11.632;2024-03-23T03:44:26;3.10;;;2.08;;
61531;SDS011;47397;48.194;11.632;2024-03-23T03:45:26;3.97;;;2.13;;
61531;SDS011;47397;48.194;11.632;2024-03-23T03:46:27;3.78;;;2.00;;
61531;SDS011;47397;48.194;11.632;2024-03-23T03:47:27;3.17;;;2.17;;
61531;SDS011;47397;48.194;11.632;2024-03-23T03:48:28;4.05;;;2.05;;
61531;SDS011;47397;48.194;11.632;2024-03-23T03:49:28;7.15;;;2.17;;
61531;SDS011;47397;48.194;11.632;2024-03-23T03:50:29;3.22;;;1.90;;
61531;SDS011;47397;48.194;11.632;2024-03-23T03:51:29;5.57;;;2.00;;
61531;SDS011;47397;48.194;11.632;2024-03-23T03:52:30;3.95;;;2.42;;
61531;SDS011;47397;48.194;11.632;2024-03-23T03:53:30;6.28;;;2.10;;
61531;SDS011;47397;48.194;11.632;2024-03-23T03:54:32;3.47;;;2.22;;
61531;SDS011;47397;48.194;11.632;2024-03-23T03:55:33;2.63;;;1.92;;
61531;SDS011;47397;48.194;11.632;2024-03-23T03:56:33;3.95;;;2.08;;
61531;SDS011;47397;48.194;11.632;2024-03-23T03:57:36;3.33;;;2.10;;
61531;SDS011;47397;48.194;11.632;2024-03-23T03:58:36;5.32;;;2.13;;
61531;SDS011;47397;48.194;11.632;2024-03-23T03:59:36;5.75;;;2.33;;
61531;SDS011;47397;48.194;11.632;2024-03-23T04:00:37;2.53;;;1.83;;
61531;SDS011;47397;48.194;11.632;2024-03-23T04:01:37;3.25;;;2.05;;
61531;SDS011;47397;48.194;11.632;2024-03-23T04:02:38;3.78;;;2.22;;
61531;SDS011;47397;48.194;11.632;2024-03-23T04:03:38;2.47;;;1.95;;
61531;SDS011;47397;48.194;11.632;2024-03-23T04:04:39;4.00;;;2.17;;
61531;SDS011;47397;48.194;11.632;2024-03-23T04:05:39;3.20;;;2.10;;
61531;SDS011;47397;48.194;11.632;2024-03-23T04:06:39;4.07;;;2.13;;
61531;SDS011;47397;48.194;11.632;2024-03-23T04:07:40;6.57;;;2.22;;
61531;SDS011;47397;48.194;11.632;2024-03-23T04:08:40;4.00;;;2.50;;
61531;SDS011;47397;48.194;11.632;2024-03-23T04:09:42;3.90;;;2.30;;
61531;SDS011;47397;48.194;11.632;2024-03-23T04:10:43;3.75;;;2.60;;
61531;SDS011;47397;48.194;11.632;2024-03-23T04:11:43;3.47;;;2.30;;
61531;SDS011;47397;48.194;11.632;2024-03-23T04:12:43;3.45;;;2.20;;
61531;SDS011;47397;48.194;11.632;2024-03-23T04:13:44;3.53;;;2.10;;
61531;SDS011;47397;48.194;11.632;2024-03-23T04:14:44;3.22;;;2.10;;
61531;SDS011;47397;48.194;11.632;2024-03-23T04:15:45;3.50;;;2.38;;
61531;SDS011;47397;48.194;11.632;2024-03-23T04:16:45;5.10;;;2.25;;
61531;SDS011;47397;48.194;11.632;2024-03-23T04:17:46;3.65;;;2.40;;
61531;SDS011;47397;48.194;11.632;2024-03-23T04:18:46;2.90;;;2.20;;
61531;SDS011;47397;48.194;11.632;2024-03-23T04:19:47;3.30;;;2.35;;
61531;SDS011;47397;48.194;11.632;2024-03-23T04:20:47;3.20;;;2.05;;
61531;SDS011;47397;48.194;11.632;2024-03-23T04:21:48;3.53;;;2.30;;
61531;SDS011;47397;48.194;11.632;2024-03-23T04:22:48;3.15;;;2.20;;
61531;SDS011;47397;48.194;11.632;2024-03-23T04:23:49;2.92;;;2.22;;
61531;SDS011;47397;48.194;11.632;2024-03-23T04:24:50;3.13;;;2.15;;
61531;SDS011;47397;48.194;11.632;2024-03-23T04:25:51;3.40;;;2.00;;
61531;SDS011;47397;48.194;11.632;2024-03-23T04:26:51;4.68;;;2.38;;
61531;SDS011;47397;48.194;11.632;2024-03-23T04:27:52;3.33;;;2.50;;
61531;SDS011;47397;48.194;11.632;2024-03-23T04:28:53;4.65;;;2.28;;
61531;SDS011;47397;48.194;11.632;2024-03-23T04:29:53;2.47;;;1.90;;
61531;SDS011;47397;48.194;11.632;2024-03-23T04:30:54;4.25;;;2.28;;
61531;SDS011;47397;48.194;11.632;2024-03-23T04:31:54;3.95;;;2.42;;
61531;SDS011;47397;48.194;11.632;2024-03-23T04:32:55;3.38;;;2.25;;
61531;SDS011;47397;48.194;11.632;2024-03-23T04:33:55;3.42;;;2.38;;
61531;SDS011;47397;48.194;11.632;2024-03-23T04:34:56;4.13;;;2.75;;
61531;SDS011;47397;48.194;11.632;2024-03-23T04:35:56;3.92;;;2.30;;
61531;SDS011;47397;48.194;11.632;2024-03-23T04:36:56;3.42;;;2.05;;
61531;SDS011;47397;48.194;11.632;2024-03-23T04:37:57;3.40;;;2.00;;
61531;SDS011;47397;48.194;11.632;2024-03-23T04:38:58;3.78;;;2.47;;
61531;SDS011;47397;48.194;11.632;2024-03-23T04:40:01;5.35;;;2.40;;
61531;SDS011;47397;48.194;11.632;2024-03-23T04:41:01;3.63;;;2.20;;
61531;SDS011;47397;48.194;11.632;2024-03-23T04:42:02;4.53;;;2.50;;
61531;SDS011;47397;48.194;11.632;2024-03-23T04:43:03;3.10;;;2.03;;
61531;SDS011;47397;48.194;11.632;2024-03-23T04:44:03;3.20;;;2.20;;
61531;SDS011;47397;48.194;11.632;2024-03-23T04:45:04;5.60;;;2.28;;
61531;SDS011;47397;48.194;11.632;2024-03-23T04:46:05;3.17;;;2.17;;
61531;SDS011;47397;48.194;11.632;2024-03-23T04:47:06;2.67;;;1.83;;
61531;SDS011;47397;48.194;11.632;2024-03-23T04:48:06;3.22;;;2.33;;
61531;SDS011;47397;48.194;11.632;2024-03-23T04:49:07;3.38;;;2.17;;
61531;SDS011;47397;48.194;11.632;2024-03-23T04:50:08;4.05;;;2.30;;
61531;SDS011;47397;48.194;11.632;2024-03-23T04:51:09;4.57;;;2.20;;
61531;SDS011;47397;48.194;11.632;2024-03-23T04:52:09;3.58;;;2.05;;
61531;SDS011;47397;48.194;11.632;2024-03-23T04:53:10;3.33;;;2.22;;
61531;SDS011;47397;48.194;11.632;2024-03-23T04:54:10;3.38;;;2.25;;
61531;SDS011;47397;48.194;11.632;2024-03-23T04:55:12;4.15;;;2.55;;
61531;SDS011;47397;48.194;11.632;2024-03-23T04:56:13;4.35;;;2.28;;
61531;SDS011;47397;48.194;11.632;2024-03-23T04:57:13;2.83;;;2.00;;
61531;SDS011;47397;48.194;11.632;2024-03-23T04:58:14;2.78;;;2.00;;
61531;SDS011;47397;48.194;11.632;2024-03-23T04:59:14;3.42;;;2.28;;
61531;SDS011;47397;48.194;11.632;2024-03-23T05:00:15;3.40;;;1.90;;
61531;SDS011;47397;48.194;11.632;2024-03-23T05:01:15;2.70;;;1.90;;
61531;SDS011;47397;48.194;11.632;2024-03-23T05:02:16;3.65;;;2.03;;
61531;SDS011;47397;48.194;11.632;2024-03-23T05:03:16;5.43;;;2.17;;
61531;SDS011;47397;48.194;11.632;2024-03-23T05:04:17;3.55;;;2.30;;
61531;SDS011;47397;48.194;11.632;2024-03-23T05:05:17;5.20;;;1.90;;
61531;SDS011;47397;48.194;11.632;2024-03-23T05:06:17;4.82;;;2.20;;
61531;SDS011;47397;48.194;11.632;2024-03-23T05:07:18;3.85;;;2.08;;
61531;SDS011;47397;48.194;11.632;2024-03-23T05:08:18;3.38;;;1.90;;
61531;SDS011;47397;48.194;11.632;2024-03-23T05:09:19;3.42;;;1.98;;
61531;SDS011;47397;48.194;11.632;2024-03-23T05:10:21;4.50;;;1.90;;
61531;SDS011;47397;48.194;11.632;2024-03-23T05:11:21;2.60;;;1.90;;
61531;SDS011;47397;48.194;11.632;2024-03-23T05:12:22;3.70;;;2.00;;
61531;SDS011;47397;48.194;11.632;2024-03-23T05:13:22;3.92;;;1.90;;
61531;SDS011;47397;48.194;11.632;2024-03-23T05:14:23;2.78;;;1.90;;
61531;SDS011;47397;48.194;11.632;2024-03-23T05:15:23;3.25;;;2.03;;
61531;SDS011;47397;48.194;11.632;2024-03-23T05:16:24;3.20;;;1.92;;
61531;SDS011;47397;48.194;11.632;2024-03-23T05:17:24;4.00;;;2.10;;
61531;SDS011;47397;48.194;11.632;2024-03-23T05:18:25;3.00;;;1.63;;
61531;SDS011;47397;48.194;11.632;2024-03-23T05:19:25;2.72;;;1.90;;
61531;SDS011;47397;48.194;11.632;2024-03-23T05:20:26;4.28;;;2.00;;
61531;SDS011;47397;48.194;11.632;2024-03-23T05:21:26;2.95;;;1.83;;
61531;SDS011;47397;48.194;11.632;2024-03-23T05:22:27;3.22;;;1.90;;
61531;SDS011;47397;48.194;11.632;2024-03-23T05:23:28;3.60;;;1.88;;
61531;SDS011;47397;48.194;11.632;2024-03-23T05:24:29;3.47;;;1.98;;
61531;SDS011;47397;48.194;11.632;2024-03-23T05:25:30;3.30;;;2.00;;
61531;SDS011;47397;48.194;11.632;2024-03-23T05:26:33;2.03;;;1.60;;
61531;SDS011;47397;48.194;11.632;2024-03-23T05:27:35;4.07;;;2.30;;
61531;SDS011;47397;48.194;11.632;2024-03-23T05:28:36;3.42;;;2.10;;
61531;SDS011;47397;48.194;11.632;2024-03-23T05:29:36;2.70;;;1.80;;
61531;SDS011;47397;48.194;11.632;2024-03-23T05:30:36;3.08;;;1.77;;
61531;SDS011;47397;48.194;11.632;2024-03-23T05:31:37;2.95;;;1.80;;
61531;SDS011;47397;48.194;11.632;2024-03-23T05:32:37;3.20;;;1.90;;
61531;SDS011;47397;48.194;11.632;2024-03-23T05:33:38;2.83;;;1.80;;
61531;SDS011;47397;48.194;11.632;2024-03-23T05:34:39;3.20;;;1.85;;
61531;SDS011;47397;48.194;11.632;2024-03-23T05:35:39;3.65;;;1.90;;
61531;SDS011;47397;48.194;11.632;2024-03-23T05:36:39;4.25;;;2.03;;
61531;SDS011;47397;48.194;11.632;2024-03-23T05:37:40;4.10;;;2.03;;
61531;SDS011;47397;48.194;11.632;2024-03-23T05:38:41;2.80;;;1.90;;
61531;SDS011;47397;48.194;11.632;2024-03-23T05:39:41;2.65;;;1.80;;
61531;SDS011;47397;48.194;11.632;2024-03-23T05:40:47;3.13;;;2.00;;
61531;SDS011;47397;48.194;11.632;2024-03-23T05:41:53;2.33;;;1.60;;
61531;SDS011;47397;48.194;11.632;2024-03-23T05:42:53;2.88;;;1.92;;
61531;SDS011;47397;48.194;11.632;2024-03-23T05:43:54;4.80;;;1.88;;
61531;SDS011;47397;48.194;11.632;2024-03-23T05:44:55;3.22;;;1.90;;
61531;SDS011;47397;48.194;11.632;2024-03-23T05:45:55;3.08;;;1.92;;
61531;SDS011;47397;48.194;11.632;2024-03-23T05:46:56;2.97;;;1.80;;
61531;SDS011;47397;48.194;11.632;2024-03-23T05:47:57;2.53;;;1.85;;
61531;SDS011;47397;48.194;11.632;2024-03-23T05:48:57;3.03;;;1.80;;
61531;SDS011;47397;48.194;11.632;2024-03-23T05:50:02;3.45;;;1.58;;
61531;SDS011;47397;48.194;11.632;2024-03-23T05:51:03;2.78;;;2.00;;
61531;SDS011;47397;48.194;11.632;2024-03-23T05:52:07;4.13;;;1.73;;
61531;SDS011;47397;48.194;11.632;2024-03-23T05:53:07;3.72;;;1.90;;
61531;SDS011;47397;48.194;11.632;2024-03-23T05:54:08;3.85;;;1.83;;
61531;SDS011;47397;48.194;11.632;2024-03-23T05:55:08;2.97;;;1.83;;
61531;SDS011;47397;48.194;11.632;2024-03-23T05:56:13;3.70;;;1.90;;
61531;SDS011;47397;48.194;11.632;2024-03-23T05:57:13;2.80;;;1.67;;
61531;SDS011;47397;48.194;11.632;2024-03-23T05:58:15;3.45;;;1.55;;
61531;SDS011;47397;48.194;11.632;2024-03-23T05:59:16;2.58;;;1.77;;
61531;SDS011;47397;48.194;11.632;2024-03-23T06:00:17;2.88;;;1.73;;
61531;SDS011;47397;48.194;11.632;2024-03-23T06:01:17;3.38;;;1.60;;
61531;SDS011;47397;48.194;11.632;2024-03-23T06:02:18;3.60;;;1.90;;
61531;SDS011;47397;48.194;11.632;2024-03-23T06:03:18;2.60;;;1.67;;
61531;SDS011;47397;48.194;11.632;2024-03-23T06:04:19;3.45;;;2.00;;
61531;SDS011;47397;48.194;11.632;2024-03-23T06:05:20;4.65;;;1.70;;
61531;SDS011;47397;48.194;11.632;2024-03-23T06:06:20;3.67;;;1.70;;
61531;SDS011;47397;48.194;11.632;2024-03-23T06:07:21;2.70;;;1.80;;
61531;SDS011;47397;48.194;11.632;2024-03-23T06:08:21;3.00;;;1.90;;
61531;SDS011;47397;48.194;11.632;2024-03-23T06:09:22;3.70;;;1.80;;
61531;SDS011;47397;48.194;11.632;2024-03-23T06:10:22;2.83;;;1.70;;
61531;SDS011;47397;48.194;11.632;2024-03-23T06:11:24;3.05;;;1.60;;
61531;SDS011;47397;48.194;11.632;2024-03-23T06:12:27;3.08;;;1.38;;
61531;SDS011;47397;48.194;11.632;2024-03-23T06:13:27;3.45;;;2.00;;
61531;SDS011;47397;48.194;11.632;2024-03-23T06:14:30;2.40;;;1.55;;
61531;SDS011;47397;48.194;11.632;2024-03-23T06:15:31;3.28;;;1.88;;
61531;SDS011;47397;48.194;11.632;2024-03-23T06:16:34;3.13;;;1.80;;
61531;SDS011;47397;48.194;11.632;2024-03-23T06:17:35;2.85;;;1.70;;
61531;SDS011;47397;48.194;11.632;2024-03-23T06:18:35;2.80;;;1.90;;
61531;SDS011;47397;48.194;11.632;2024-03-23T06:19:36;2.45;;;1.55;;
61531;SDS011;47397;48.194;11.632;2024-03-23T06:20:37;3.50;;;1.80;;
61531;SDS011;47397;48.194;11.632;2024-03-23T06:21:37;3.13;;;1.90;;
61531;SDS011;47397;48.194;11.632;2024-03-23T06:22:42;3.33;;;1.77;;
61531;SDS011;47397;48.194;11.632;2024-03-23T06:23:44;3.22;;;2.00;;
61531;SDS011;47397;48.194;11.632;2024-03-23T06:24:45;4.75;;;1.80;;
61531;SDS011;47397;48.194;11.632;2024-03-23T06:25:46;2.85;;;1.70;;
61531;SDS011;47397;48.194;11.632;2024-03-23T06:26:51;3.10;;;1.60;;
61531;SDS011;47397;48.194;11.632;2024-03-23T06:27:55;2.78;;;1.88;;
61531;SDS011;47397;48.194;11.632;2024-03-23T06:28:56;4.47;;;1.90;;
61531;SDS011;47397;48.194;11.632;2024-03-23T06:29:57;4.00;;;1.92;;
61531;SDS011;47397;48.194;11.632;2024-03-23T06:31:07;4.20;;;1.85;;
61531;SDS011;47397;48.194;11.632;2024-03-23T06:32:12;3.47;;;1.90;;
61531;SDS011;47397;48.194;11.632;2024-03-23T06:33:12;3.78;;;1.80;;
61531;SDS011;47397;48.194;11.632;2024-03-23T06:34:15;3.78;;;1.67;;
61531;SDS011;47397;48.194;11.632;2024-03-23T06:35:15;2.90;;;2.00;;
61531;SDS011;47397;48.194;11.632;2024-03-23T06:36:18;3.17;;;1.80;;
61531;SDS011;47397;48.194;11.632;2024-03-23T06:37:19;3.35;;;1.60;;
61531;SDS011;47397;48.194;11.632;2024-03-23T06:38:21;3.95;;;1.83;;
61531;SDS011;47397;48.194;11.632;2024-03-23T06:39:22;3.88;;;1.88;;
61531;SDS011;47397;48.194;11.632;2024-03-23T06:40:23;2.90;;;1.88;;
61531;SDS011;47397;48.194;11.632;2024-03-23T06:41:26;2.22;;;1.52;;
61531;SDS011;47397;48.194;11.632;2024-03-23T06:42:34;2.67;;;1.50;;
61531;SDS011;47397;48.194;11.632;2024-03-23T06:43:35;2.90;;;1.60;;
61531;SDS011;47397;48.194;11.632;2024-03-23T06:44:36;2.70;;;1.48;;
61531;SDS011;47397;48.194;11.632;2024-03-23T06:45:37;2.67;;;1.50;;
61531;SDS011;47397;48.194;11.632;2024-03-23T06:46:41;3.10;;;1.90;;
61531;SDS011;47397;48.194;11.632;2024-03-23T06:47:42;2.95;;;1.88;;
61531;SDS011;47397;48.194;11.632;2024-03-23T06:48:50;4.30;;;1.70;;
61531;SDS011;47397;48.194;11.632;2024-03-23T06:49:50;2.97;;;1.70;;
61531;SDS011;47397;48.194;11.632;2024-03-23T06:50:55;3.15;;;1.50;;
61531;SDS011;47397;48.194;11.632;2024-03-23T06:52:03;3.67;;;1.85;;
61531;SDS011;47397;48.194;11.632;2024-03-23T06:53:07;4.35;;;1.80;;
61531;SDS011;47397;48.194;11.632;2024-03-23T06:54:10;3.28;;;1.70;;